Buoy 62724

sailwx.info

Track history (hours):
 
Tides and Currents Weather Stations Pressure Air Temp Water Temp Dewpoint Dewpoint Depression Visibility Wind Speed Wind Dir Waves Ship Positions

Drifting buoy 62724

Last reported at 2018-Feb-21 22:00 UTC. Time now 2018-Feb-21 23:29 UTC.
Position N 37°33' W 026°22'.

Water temperature 17.8 ° C

Date/timePositionNaut miles runAvg speedWind from/ knotsBaromVisibWave heightAir tempDewpointWater temp
2018-Feb-21 22:00N 37°33' W 026°22'0 0.0 17.8
2018-Feb-21 21:00N 37°33' W 026°22'1 1.3 17.8
2018-Feb-21 20:00N 37°32' W 026°23'0 0.0 17.8
2018-Feb-21 19:00N 37°32' W 026°23'1 0.6 17.8
2018-Feb-21 18:00N 37°31' W 026°23'1 0.8 17.8
2018-Feb-21 17:00N 37°32' W 026°23'3 2.8 17.8
2018-Feb-21 16:00N 37°29' W 026°25'0 0.0 17.8
2018-Feb-21 15:00N 37°29' W 026°25'3 1.1 17.8
2018-Feb-21 12:00N 37°27' W 026°22'0 0.0 17.8
2018-Feb-21 11:00N 37°27' W 026°22'1 0.8 17.8
2018-Feb-21 10:00N 37°28' W 026°23'2 1.9 17.8
2018-Feb-21 09:00N 37°26' W 026°23'0 0.0 17.8
2018-Feb-21 07:00N 37°26' W 026°23'3 2.8 17.9
2018-Feb-21 06:00N 37°23' W 026°25'0 0.0 17.9
2018-Feb-21 05:00N 37°23' W 026°25'0 0.0 17.9
2018-Feb-21 04:00N 37°23' W 026°25'0 0.0 17.9
2018-Feb-21 03:00N 37°23' W 026°25'4 1.2 17.9
2018-Feb-21 00:00N 37°20' W 026°26'1 1.1 17.9
2018-Feb-20 23:00N 37°19' W 026°25'1 0.6 17.9
2018-Feb-20 22:00N 37°20' W 026°25'0 0.0 17.9
2018-Feb-20 21:00N 37°20' W 026°25'2 1.6 17.9
2018-Feb-20 20:00N 37°19' W 026°23'2 2.0 17.9
2018-Feb-20 19:00N 37°19' W 026°26'1 0.5 18.0
2018-Feb-20 17:00N 37°19' W 026°27'4 4.1 17.8
2018-Feb-20 16:00N 37°16' W 026°31'0 0.0 17.8
2018-Feb-20 15:00N 37°16' W 026°31'0 0.0 17.8
2018-Feb-20 13:00N 37°16' W 026°31'2 0.9 18.1
2018-Feb-20 11:00N 37°15' W 026°29'2 1.9 18.1
2018-Feb-20 10:00N 37°13' W 026°30'2 1.5 18.1
2018-Feb-20 09:00N 37°12' W 026°29'0 0.0 18.1
2018-Feb-20 08:00N 37°12' W 026°29'0 0.0 18.2
2018-Feb-20 07:00N 37°12' W 026°29'1 1.1 18.2
2018-Feb-20 06:00N 37°13' W 026°30'0 0.0 18.2
2018-Feb-20 05:00N 37°13' W 026°30'0 0.0 18.2
2018-Feb-20 00:00N 37°13' W 026°30'0 0.5 18.2
2018-Feb-19 23:00N 37°13' W 026°29'2 0.7 18.1
2018-Feb-19 20:00N 37°11' W 026°28'1 1.2 18.0
2018-Feb-19 19:00N 37°10' W 026°28'0 0.0 18.0
2018-Feb-19 18:00N 37°10' W 026°28'1 1.1 18.1
2018-Feb-19 17:00N 37°10' W 026°27'0 0.0 18.1
2018-Feb-19 16:00N 37°10' W 026°27'0 0.0 18.1
2018-Feb-19 15:00N 37°10' W 026°27'1 0.6 18.1
2018-Feb-19 13:00N 37°11' W 026°28'1 0.8 17.9
2018-Feb-19 12:00N 37°11' W 026°28'1 1.2 17.8
2018-Feb-19 11:00N 37°10' W 026°28'0 0.0 17.8
2018-Feb-19 10:00N 37°10' W 026°28'0 0.0 17.8
2018-Feb-19 09:00N 37°10' W 026°28'0 0.0 17.8
2018-Feb-19 08:00N 37°10' W 026°28'1 1.3 17.9
2018-Feb-19 07:00N 37°08' W 026°28'1 0.6 17.9
2018-Feb-19 06:00N 37°08' W 026°28'0 0.0 18.0
2018-Feb-19 05:00N 37°08' W 026°28'2 1.5 18.0
2018-Feb-19 04:00N 37°09' W 026°26'1 0.1 18.0
2018-Feb-18 23:00N 37°08' W 026°26'0 0.0 18.0
2018-Feb-18 22:00N 37°08' W 026°26'1 0.8 18.0
2018-Feb-18 21:00N 37°08' W 026°27'1 0.8 18.0
2018-Feb-18 20:00N 37°07' W 026°26'1 1.1 18.1
2018-Feb-18 19:00N 37°07' W 026°25'0 0.0 18.1
2018-Feb-18 17:00N 37°07' W 026°25'0 0.0 18.0
2018-Feb-18 16:00N 37°07' W 026°25'3 0.7 18.0
2018-Feb-18 12:00N 37°06' W 026°22'1 1.3 17.8
2018-Feb-18 11:00N 37°07' W 026°21'1 0.8 17.8
2018-Feb-18 10:00N 37°07' W 026°22'0 0.5 17.7
2018-Feb-18 09:00N 37°07' W 026°21'1 1.4 17.7
2018-Feb-18 08:00N 37°07' W 026°19'0 0.0 17.6
2018-Feb-18 07:00N 37°07' W 026°19'1 1.1 17.6
2018-Feb-18 06:00N 37°07' W 026°18'3 2.9 17.6
2018-Feb-18 05:00N 37°07' W 026°14'0 0.0 17.4
2018-Feb-18 04:00N 37°07' W 026°14'0 0.0 17.4
2018-Feb-18 00:00N 37°07' W 026°14'2 1.5 17.5
2018-Feb-17 23:00N 37°08' W 026°13'0 0.0 17.6
2018-Feb-17 22:00N 37°08' W 026°13'0 0.0 17.6
2018-Feb-17 21:00N 37°08' W 026°13'0 0.0 17.4
2018-Feb-17 20:00N 37°08' W 026°13'0 0.5 17.4
2018-Feb-17 19:00N 37°08' W 026°13'0 0.5 17.4
2018-Feb-17 18:00N 37°08' W 026°12'0 0.0 17.4
2018-Feb-17 17:00N 37°08' W 026°12'3 2.7 17.5
2018-Feb-17 16:00N 37°07' W 026°09'1 0.2 17.5
2018-Feb-17 12:00N 37°08' W 026°08'0 0.0 17.2
2018-Feb-17 11:00N 37°08' W 026°08'2 1.6 17.1
2018-Feb-17 10:00N 37°07' W 026°07'2 2.3 17.1
2018-Feb-17 09:00N 37°08' W 026°04'0 0.0 17.1
2018-Feb-17 08:00N 37°08' W 026°04'1 1.0 17.2
2018-Feb-17 07:00N 37°08' W 026°05'0 0.0 17.2
2018-Feb-17 06:00N 37°08' W 026°05'6 6.5 17.2
2018-Feb-17 05:00N 37°10' W 025°58'1 0.1 17.2
2018-Feb-16 23:00N 37°10' W 025°58'0 0.0 17.4
2018-Feb-16 22:00N 37°10' W 025°58'2 2.0 17.5
2018-Feb-16 21:00N 37°10' W 025°56'1 1.0 17.5
2018-Feb-16 20:00N 37°10' W 025°55'0 0.0 17.5
2018-Feb-16 19:00N 37°10' W 025°55'1 1.1 17.6
2018-Feb-16 18:00N 37°11' W 025°53'1 1.4 17.6
2018-Feb-16 17:00N 37°11' W 025°52'0 0.0 17.6
2018-Feb-16 16:00N 37°11' W 025°52'2 1.6 17.6
2018-Feb-16 15:00N 37°11' W 025°50'2 1.6 17.6
2018-Feb-16 14:00N 37°11' W 025°52'1 0.6 17.6
2018-Feb-16 12:00N 37°11' W 025°50'0 0.5 17.6
2018-Feb-16 11:00N 37°11' W 025°50'0 0.0 17.6
2018-Feb-16 10:00N 37°11' W 025°50'3 3.4 17.5
2018-Feb-16 09:00N 37°11' W 025°46'2 1.9 17.5
2018-Feb-16 08:00N 37°12' W 025°47'2 1.5 17.5
2018-Feb-16 07:00N 37°13' W 025°46'0 0.0 17.4
2018-Feb-16 06:00N 37°13' W 025°46'0 0.5 17.4
2018-Feb-16 05:00N 37°13' W 025°46'3 3.4 17.5
2018-Feb-16 04:00N 37°16' W 025°43'0 0.0 17.6
2018-Feb-16 00:00N 37°16' W 025°43'1 0.8 17.6
2018-Feb-15 23:00N 37°16' W 025°42'1 0.8 17.7
2018-Feb-15 22:00N 37°17' W 025°41'1 1.1 17.7
2018-Feb-15 21:00N 37°17' W 025°40'1 0.6 17.7
2018-Feb-15 20:00N 37°18' W 025°40'1 1.1 17.7
2018-Feb-15 19:00N 37°19' W 025°39'3 2.6 17.7
2018-Feb-15 18:00N 37°20' W 025°37'0 0.0 17.8
2018-Feb-15 17:00N 37°20' W 025°37'1 0.6 17.8
2018-Feb-15 16:00N 37°21' W 025°37'2 2.3 17.8
2018-Feb-15 15:00N 37°23' W 025°35'1 0.4 17.8
2018-Feb-15 12:00N 37°24' W 025°35'1 1.0 17.7
2018-Feb-15 11:00N 37°24' W 025°34'0 0.5 17.6
2018-Feb-15 10:00N 37°24' W 025°33'0 0.0 17.6
2018-Feb-15 09:00N 37°24' W 025°33'2 1.8 17.6
2018-Feb-15 08:00N 37°26' W 025°33'6 6.1 17.6
2018-Feb-15 07:00N 37°32' W 025°32'0 0.0 17.6
2018-Feb-15 06:00N 37°32' W 025°32'0 0.0 17.6
2018-Feb-15 05:00N 37°32' W 025°32'0 0.0 17.6
2018-Feb-15 04:00N 37°32' W 025°32'0 0.0 17.6
2018-Feb-14 23:00N 37°32' W 025°32'1 0.8 17.6
2018-Feb-14 22:00N 37°32' W 025°32'2 1.5 17.6
2018-Feb-14 21:00N 37°32' W 025°34'1 0.6 17.7
2018-Feb-14 20:00N 37°32' W 025°34'1 0.8 17.7
2018-Feb-14 19:00N 37°33' W 025°35'0 0.0 17.7
2018-Feb-14 18:00N 37°33' W 025°35'0 0.0 17.7
2018-Feb-14 17:00N 37°33' W 025°35'1 1.4 17.8
2018-Feb-14 16:00N 37°33' W 025°37'1 0.8 17.8
2018-Feb-14 15:00N 37°32' W 025°37'2 1.1 17.8
2018-Feb-14 13:00N 37°34' W 025°40'0 0.0 17.7
2018-Feb-14 12:00N 37°34' W 025°40'1 1.0 17.6
2018-Feb-14 11:00N 37°34' W 025°38'2 1.9 17.6
2018-Feb-14 10:00N 37°34' W 025°41'0 0.0 17.7
2018-Feb-14 09:00N 37°34' W 025°41'1 1.0 17.7
2018-Feb-14 08:00N 37°34' W 025°42'0 0.5 17.7
2018-Feb-14 07:00N 37°34' W 025°43'2 2.3 17.7
2018-Feb-14 06:00N 37°32' W 025°44'0 0.0 17.8
2018-Feb-14 05:00N 37°32' W 025°44'2 2.3 17.8
2018-Feb-14 04:00N 37°31' W 025°47'2 2.3 17.8
2018-Feb-14 03:00N 37°32' W 025°44'2 0.8 17.8
2018-Feb-14 00:00N 37°31' W 025°47'0 0.0 17.8
2018-Feb-13 23:00N 37°31' W 025°47'1 0.6 17.8
2018-Feb-13 22:00N 37°30' W 025°47'1 1.1 17.8
2018-Feb-13 21:00N 37°29' W 025°48'1 0.6 17.8
2018-Feb-13 20:00N 37°30' W 025°48'0 0.0 17.8
2018-Feb-13 19:00N 37°30' W 025°48'1 1.0 17.8
2018-Feb-13 18:00N 37°30' W 025°49'1 1.1 17.8
2018-Feb-13 17:00N 37°29' W 025°50'0 0.0 17.8
2018-Feb-13 16:00N 37°29' W 025°50'0 0.0 17.8
2018-Feb-13 15:00N 37°29' W 025°50'2 0.8 17.8
2018-Feb-13 12:00N 37°28' W 025°53'0 0.0 17.7
2018-Feb-13 11:00N 37°28' W 025°53'2 2.0 17.7
2018-Feb-13 10:00N 37°26' W 025°54'0 0.0 17.7
2018-Feb-13 09:00N 37°26' W 025°54'1 1.3 17.7
2018-Feb-13 08:00N 37°25' W 025°55'0 0.0 17.7
2018-Feb-13 07:00N 37°25' W 025°55'2 2.5 17.7
2018-Feb-13 06:00N 37°25' W 025°58'0 0.0 17.7
2018-Feb-13 05:00N 37°25' W 025°58'0 0.0 17.7
2018-Feb-13 04:00N 37°25' W 025°58'0 0.0 17.8
2018-Feb-13 03:00N 37°25' W 025°58'0 0.0 17.7
2018-Feb-13 00:00N 37°25' W 025°58'2 1.5 17.7
2018-Feb-12 23:00N 37°23' W 025°59'0 0.0 17.7
2018-Feb-12 22:00N 37°23' W 025°59'1 0.6 17.7
2018-Feb-12 21:00N 37°23' W 025°59'1 1.4 17.7
2018-Feb-12 20:00N 37°23' W 025°57'0 0.0 17.8
2018-Feb-12 19:00N 37°23' W 025°57'1 0.8 17.8
2018-Feb-12 18:00N 37°23' W 025°58'0 0.5 17.9
2018-Feb-12 17:00N 37°23' W 025°57'1 0.8 17.9
2018-Feb-12 16:00N 37°24' W 025°56'0 0.0 17.9
2018-Feb-12 15:00N 37°24' W 025°56'0 0.2 17.8
2018-Feb-12 12:00N 37°24' W 025°57'0 0.0 17.8
2018-Feb-12 11:00N 37°24' W 025°57'0 0.0 17.8
2018-Feb-12 10:00N 37°24' W 025°57'1 0.6 17.7
2018-Feb-12 09:00N 37°23' W 025°57'0 0.0 17.7
2018-Feb-12 08:00N 37°23' W 025°57'1 1.4 17.7
2018-Feb-12 07:00N 37°23' W 025°55'0 0.0 17.8
2018-Feb-12 06:00N 37°23' W 025°55'1 0.6 17.7
2018-Feb-12 05:00N 37°24' W 025°55'1 0.8 17.7
2018-Feb-12 04:00N 37°25' W 025°56'0 0.0 17.7
2018-Feb-12 03:00N 37°25' W 025°56'2 0.4 17.6
2018-Feb-11 23:00N 37°23' W 025°55'0 0.0 17.6
2018-Feb-11 22:00N 37°23' W 025°55'   17.6
Track history (hours):
 
Tides and Currents Weather Stations Pressure Air Temp Water Temp Dewpoint Dewpoint Depression Visibility Wind Speed Wind Dir Waves Ship Positions

Drifting buoy 62724

Last reported at 2018-Feb-21 22:00 UTC. Time now 2018-Feb-21 23:29 UTC.
Position N 37°33' W 026°22'.

Water temperature 17.8 ° C

Date/timePositionNaut miles runAvg speedWind from/ knotsBaromVisibWave heightAir tempDewpointWater temp
2018-Feb-21 22:00N 37°33' W 026°22'0 0.0 17.8
2018-Feb-21 21:00N 37°33' W 026°22'1 1.3 17.8
2018-Feb-21 20:00N 37°32' W 026°23'0 0.0 17.8
2018-Feb-21 19:00N 37°32' W 026°23'1 0.6 17.8
2018-Feb-21 18:00N 37°31' W 026°23'1 0.8 17.8
2018-Feb-21 17:00N 37°32' W 026°23'3 2.8 17.8
2018-Feb-21 16:00N 37°29' W 026°25'0 0.0 17.8
2018-Feb-21 15:00N 37°29' W 026°25'3 1.1 17.8
2018-Feb-21 12:00N 37°27' W 026°22'0 0.0 17.8
2018-Feb-21 11:00N 37°27' W 026°22'1 0.8 17.8
2018-Feb-21 10:00N 37°28' W 026°23'2 1.9 17.8
2018-Feb-21 09:00N 37°26' W 026°23'0 0.0 17.8
2018-Feb-21 07:00N 37°26' W 026°23'3 2.8 17.9
2018-Feb-21 06:00N 37°23' W 026°25'0 0.0 17.9
2018-Feb-21 05:00N 37°23' W 026°25'0 0.0 17.9
2018-Feb-21 04:00N 37°23' W 026°25'0 0.0 17.9
2018-Feb-21 03:00N 37°23' W 026°25'4 1.2 17.9
2018-Feb-21 00:00N 37°20' W 026°26'1 1.1 17.9
2018-Feb-20 23:00N 37°19' W 026°25'1 0.6 17.9
2018-Feb-20 22:00N 37°20' W 026°25'0 0.0 17.9
2018-Feb-20 21:00N 37°20' W 026°25'2 1.6 17.9
2018-Feb-20 20:00N 37°19' W 026°23'2 2.0 17.9
2018-Feb-20 19:00N 37°19' W 026°26'1 0.5 18.0
2018-Feb-20 17:00N 37°19' W 026°27'4 4.1 17.8
2018-Feb-20 16:00N 37°16' W 026°31'0 0.0 17.8
2018-Feb-20 15:00N 37°16' W 026°31'0 0.0 17.8
2018-Feb-20 13:00N 37°16' W 026°31'2 0.9 18.1
2018-Feb-20 11:00N 37°15' W 026°29'2 1.9 18.1
2018-Feb-20 10:00N 37°13' W 026°30'2 1.5 18.1
2018-Feb-20 09:00N 37°12' W 026°29'0 0.0 18.1
2018-Feb-20 08:00N 37°12' W 026°29'0 0.0 18.2
2018-Feb-20 07:00N 37°12' W 026°29'1 1.1 18.2
2018-Feb-20 06:00N 37°13' W 026°30'0 0.0 18.2
2018-Feb-20 05:00N 37°13' W 026°30'0 0.0 18.2
2018-Feb-20 00:00N 37°13' W 026°30'0 0.5 18.2
2018-Feb-19 23:00N 37°13' W 026°29'2 0.7 18.1
2018-Feb-19 20:00N 37°11' W 026°28'1 1.2 18.0
2018-Feb-19 19:00N 37°10' W 026°28'0 0.0 18.0
2018-Feb-19 18:00N 37°10' W 026°28'1 1.1 18.1
2018-Feb-19 17:00N 37°10' W 026°27'0 0.0 18.1
2018-Feb-19 16:00N 37°10' W 026°27'0 0.0 18.1
2018-Feb-19 15:00N 37°10' W 026°27'1 0.6 18.1
2018-Feb-19 13:00N 37°11' W 026°28'1 0.8 17.9
2018-Feb-19 12:00N 37°11' W 026°28'1 1.2 17.8
2018-Feb-19 11:00N 37°10' W 026°28'0 0.0 17.8
2018-Feb-19 10:00N 37°10' W 026°28'0 0.0 17.8
2018-Feb-19 09:00N 37°10' W 026°28'0 0.0 17.8
2018-Feb-19 08:00N 37°10' W 026°28'1 1.3 17.9
2018-Feb-19 07:00N 37°08' W 026°28'1 0.6 17.9
2018-Feb-19 06:00N 37°08' W 026°28'0 0.0 18.0
2018-Feb-19 05:00N 37°08' W 026°28'2 1.5 18.0
2018-Feb-19 04:00N 37°09' W 026°26'1 0.1 18.0
2018-Feb-18 23:00N 37°08' W 026°26'0 0.0 18.0
2018-Feb-18 22:00N 37°08' W 026°26'1 0.8 18.0
2018-Feb-18 21:00N 37°08' W 026°27'1 0.8 18.0
2018-Feb-18 20:00N 37°07' W 026°26'1 1.1 18.1
2018-Feb-18 19:00N 37°07' W 026°25'0 0.0 18.1
2018-Feb-18 17:00N 37°07' W 026°25'0 0.0 18.0
2018-Feb-18 16:00N 37°07' W 026°25'3 0.7 18.0
2018-Feb-18 12:00N 37°06' W 026°22'1 1.3 17.8
2018-Feb-18 11:00N 37°07' W 026°21'1 0.8 17.8
2018-Feb-18 10:00N 37°07' W 026°22'0 0.5 17.7
2018-Feb-18 09:00N 37°07' W 026°21'1 1.4 17.7
2018-Feb-18 08:00N 37°07' W 026°19'0 0.0 17.6
2018-Feb-18 07:00N 37°07' W 026°19'1 1.1 17.6
2018-Feb-18 06:00N 37°07' W 026°18'3 2.9 17.6
2018-Feb-18 05:00N 37°07' W 026°14'0 0.0 17.4
2018-Feb-18 04:00N 37°07' W 026°14'0 0.0 17.4
2018-Feb-18 00:00N 37°07' W 026°14'2 1.5 17.5
2018-Feb-17 23:00N 37°08' W 026°13'0 0.0 17.6
2018-Feb-17 22:00N 37°08' W 026°13'0 0.0 17.6
2018-Feb-17 21:00N 37°08' W 026°13'0 0.0 17.4
2018-Feb-17 20:00N 37°08' W 026°13'0 0.5 17.4
2018-Feb-17 19:00N 37°08' W 026°13'0 0.5 17.4
2018-Feb-17 18:00N 37°08' W 026°12'0 0.0 17.4
2018-Feb-17 17:00N 37°08' W 026°12'3 2.7 17.5
2018-Feb-17 16:00N 37°07' W 026°09'1 0.2 17.5
2018-Feb-17 12:00N 37°08' W 026°08'0 0.0 17.2
2018-Feb-17 11:00N 37°08' W 026°08'2 1.6 17.1
2018-Feb-17 10:00N 37°07' W 026°07'2 2.3 17.1
2018-Feb-17 09:00N 37°08' W 026°04'0 0.0 17.1
2018-Feb-17 08:00N 37°08' W 026°04'1 1.0 17.2
2018-Feb-17 07:00N 37°08' W 026°05'0 0.0 17.2
2018-Feb-17 06:00N 37°08' W 026°05'6 6.5 17.2
2018-Feb-17 05:00N 37°10' W 025°58'1 0.1 17.2
2018-Feb-16 23:00N 37°10' W 025°58'0 0.0 17.4
2018-Feb-16 22:00N 37°10' W 025°58'2 2.0 17.5
2018-Feb-16 21:00N 37°10' W 025°56'1 1.0 17.5
2018-Feb-16 20:00N 37°10' W 025°55'0 0.0 17.5
2018-Feb-16 19:00N 37°10' W 025°55'1 1.1 17.6
2018-Feb-16 18:00N 37°11' W 025°53'1 1.4 17.6
2018-Feb-16 17:00N 37°11' W 025°52'0 0.0 17.6
2018-Feb-16 16:00N 37°11' W 025°52'2 1.6 17.6
2018-Feb-16 15:00N 37°11' W 025°50'2 1.6 17.6
2018-Feb-16 14:00N 37°11' W 025°52'1 0.6 17.6
2018-Feb-16 12:00N 37°11' W 025°50'0 0.5 17.6
2018-Feb-16 11:00N 37°11' W 025°50'0 0.0 17.6
2018-Feb-16 10:00N 37°11' W 025°50'3 3.4 17.5
2018-Feb-16 09:00N 37°11' W 025°46'2 1.9 17.5
2018-Feb-16 08:00N 37°12' W 025°47'2 1.5 17.5
2018-Feb-16 07:00N 37°13' W 025°46'0 0.0 17.4
2018-Feb-16 06:00N 37°13' W 025°46'0 0.5 17.4
2018-Feb-16 05:00N 37°13' W 025°46'3 3.4 17.5
2018-Feb-16 04:00N 37°16' W 025°43'0 0.0 17.6
2018-Feb-16 00:00N 37°16' W 025°43'1 0.8 17.6
2018-Feb-15 23:00N 37°16' W 025°42'1 0.8 17.7
2018-Feb-15 22:00N 37°17' W 025°41'1 1.1 17.7
2018-Feb-15 21:00N 37°17' W 025°40'1 0.6 17.7
2018-Feb-15 20:00N 37°18' W 025°40'1 1.1 17.7
2018-Feb-15 19:00N 37°19' W 025°39'3 2.6 17.7
2018-Feb-15 18:00N 37°20' W 025°37'0 0.0 17.8
2018-Feb-15 17:00N 37°20' W 025°37'1 0.6 17.8
2018-Feb-15 16:00N 37°21' W 025°37'2 2.3 17.8
2018-Feb-15 15:00N 37°23' W 025°35'1 0.4 17.8
2018-Feb-15 12:00N 37°24' W 025°35'1 1.0 17.7
2018-Feb-15 11:00N 37°24' W 025°34'0 0.5 17.6
2018-Feb-15 10:00N 37°24' W 025°33'0 0.0 17.6
2018-Feb-15 09:00N 37°24' W 025°33'2 1.8 17.6
2018-Feb-15 08:00N 37°26' W 025°33'6 6.1 17.6
2018-Feb-15 07:00N 37°32' W 025°32'0 0.0 17.6
2018-Feb-15 06:00N 37°32' W 025°32'0 0.0 17.6
2018-Feb-15 05:00N 37°32' W 025°32'0 0.0 17.6
2018-Feb-15 04:00N 37°32' W 025°32'0 0.0 17.6
2018-Feb-14 23:00N 37°32' W 025°32'1 0.8 17.6
2018-Feb-14 22:00N 37°32' W 025°32'2 1.5 17.6
2018-Feb-14 21:00N 37°32' W 025°34'1 0.6 17.7
2018-Feb-14 20:00N 37°32' W 025°34'1 0.8 17.7
2018-Feb-14 19:00N 37°33' W 025°35'0 0.0 17.7
2018-Feb-14 18:00N 37°33' W 025°35'0 0.0 17.7
2018-Feb-14 17:00N 37°33' W 025°35'1 1.4 17.8
2018-Feb-14 16:00N 37°33' W 025°37'1 0.8 17.8
2018-Feb-14 15:00N 37°32' W 025°37'2 1.1 17.8
2018-Feb-14 13:00N 37°34' W 025°40'0 0.0 17.7
2018-Feb-14 12:00N 37°34' W 025°40'1 1.0 17.6
2018-Feb-14 11:00N 37°34' W 025°38'2 1.9 17.6
2018-Feb-14 10:00N 37°34' W 025°41'0 0.0 17.7
2018-Feb-14 09:00N 37°34' W 025°41'1 1.0 17.7
2018-Feb-14 08:00N 37°34' W 025°42'0 0.5 17.7
2018-Feb-14 07:00N 37°34' W 025°43'2 2.3 17.7
2018-Feb-14 06:00N 37°32' W 025°44'0 0.0 17.8
2018-Feb-14 05:00N 37°32' W 025°44'2 2.3 17.8
2018-Feb-14 04:00N 37°31' W 025°47'2 2.3 17.8
2018-Feb-14 03:00N 37°32' W 025°44'2 0.8 17.8
2018-Feb-14 00:00N 37°31' W 025°47'0 0.0 17.8
2018-Feb-13 23:00N 37°31' W 025°47'1 0.6 17.8
2018-Feb-13 22:00N 37°30' W 025°47'1 1.1 17.8
2018-Feb-13 21:00N 37°29' W 025°48'1 0.6 17.8
2018-Feb-13 20:00N 37°30' W 025°48'0 0.0 17.8
2018-Feb-13 19:00N 37°30' W 025°48'1 1.0 17.8
2018-Feb-13 18:00N 37°30' W 025°49'1 1.1 17.8
2018-Feb-13 17:00N 37°29' W 025°50'0 0.0 17.8
2018-Feb-13 16:00N 37°29' W 025°50'0 0.0 17.8
2018-Feb-13 15:00N 37°29' W 025°50'2 0.8 17.8
2018-Feb-13 12:00N 37°28' W 025°53'0 0.0 17.7
2018-Feb-13 11:00N 37°28' W 025°53'2 2.0 17.7
2018-Feb-13 10:00N 37°26' W 025°54'0 0.0 17.7
2018-Feb-13 09:00N 37°26' W 025°54'1 1.3 17.7
2018-Feb-13 08:00N 37°25' W 025°55'0 0.0 17.7
2018-Feb-13 07:00N 37°25' W 025°55'2 2.5 17.7
2018-Feb-13 06:00N 37°25' W 025°58'0 0.0 17.7
2018-Feb-13 05:00N 37°25' W 025°58'0 0.0 17.7
2018-Feb-13 04:00N 37°25' W 025°58'0 0.0 17.8
2018-Feb-13 03:00N 37°25' W 025°58'0 0.0 17.7
2018-Feb-13 00:00N 37°25' W 025°58'2 1.5 17.7
2018-Feb-12 23:00N 37°23' W 025°59'0 0.0 17.7
2018-Feb-12 22:00N 37°23' W 025°59'1 0.6 17.7
2018-Feb-12 21:00N 37°23' W 025°59'1 1.4 17.7
2018-Feb-12 20:00N 37°23' W 025°57'0 0.0 17.8
2018-Feb-12 19:00N 37°23' W 025°57'1 0.8 17.8
2018-Feb-12 18:00N 37°23' W 025°58'0 0.5 17.9
2018-Feb-12 17:00N 37°23' W 025°57'1 0.8 17.9
2018-Feb-12 16:00N 37°24' W 025°56'0 0.0 17.9
2018-Feb-12 15:00N 37°24' W 025°56'0 0.2 17.8
2018-Feb-12 12:00N 37°24' W 025°57'0 0.0 17.8
2018-Feb-12 11:00N 37°24' W 025°57'0 0.0 17.8
2018-Feb-12 10:00N 37°24' W 025°57'1 0.6 17.7
2018-Feb-12 09:00N 37°23' W 025°57'0 0.0 17.7
2018-Feb-12 08:00N 37°23' W 025°57'1 1.4 17.7
2018-Feb-12 07:00N 37°23' W 025°55'0 0.0 17.8
2018-Feb-12 06:00N 37°23' W 025°55'1 0.6 17.7
2018-Feb-12 05:00N 37°24' W 025°55'1 0.8 17.7
2018-Feb-12 04:00N 37°25' W 025°56'0 0.0 17.7
2018-Feb-12 03:00N 37°25' W 025°56'2 0.4 17.6
2018-Feb-11 23:00N 37°23' W 025°55'0 0.0 17.6
2018-Feb-11 22:00N 37°23' W 025°55'   17.6

Dump ship's entire track history